createdAt,value
2022-10-08T00:01:31.830Z,12.63
2022-10-08T00:04:01.510Z,11.75
2022-10-08T00:06:31.131Z,12.75
2022-10-08T00:09:02.341Z,11.75
2022-10-08T00:11:32.477Z,11.27
2022-10-08T00:14:02.094Z,11.57
2022-10-08T00:16:32.662Z,12.15
2022-10-08T00:19:04.188Z,11.20
2022-10-08T00:21:34.080Z,12.40
2022-10-08T00:24:03.442Z,11.52
2022-10-08T00:26:33.265Z,12.27
2022-10-08T00:29:03.530Z,12.20
2022-10-08T00:31:33.868Z,12.07
2022-10-08T00:34:05.837Z,12.20
2022-10-08T00:36:35.735Z,12.32
2022-10-08T00:39:06.064Z,11.60
2022-10-08T00:41:38.220Z,12.02
2022-10-08T00:44:39.786Z,12.07
2022-10-08T00:47:18.833Z,11.48
2022-10-08T00:49:51.122Z,11.48
2022-10-08T00:52:20.780Z,12.18
2022-10-08T00:54:51.434Z,11.63
2022-10-08T00:57:20.824Z,12.40
2022-10-08T00:59:49.154Z,11.73
2022-10-08T01:02:19.335Z,13.40
2022-10-08T01:04:49.644Z,13.52
2022-10-08T01:07:24.463Z,13.05
2022-10-08T01:10:06.090Z,13.02
2022-10-08T01:12:45.085Z,12.75
2022-10-08T01:15:22.387Z,12.98
2022-10-08T01:18:04.847Z,13.95
2022-10-08T01:20:47.163Z,13.38
2022-10-08T01:23:39.719Z,12.45
2022-10-08T01:26:22.892Z,12.27
2022-10-08T01:28:57.953Z,12.48
2022-10-08T01:31:32.329Z,13.80
2022-10-08T01:34:04.255Z,13.60
2022-10-08T01:36:38.653Z,12.73
2022-10-08T01:39:11.370Z,12.02
2022-10-08T01:41:41.848Z,11.80
2022-10-08T01:44:17.375Z,11.82
2022-10-08T01:46:48.485Z,12.82
2022-10-08T01:49:23.910Z,12.18
2022-10-08T01:51:56.347Z,12.50
2022-10-08T01:54:27.748Z,13.25
2022-10-08T01:56:57.772Z,13.00
2022-10-08T01:59:32.605Z,13.52
2022-10-08T02:02:07.582Z,12.93
2022-10-08T02:04:37.112Z,12.82
2022-10-08T02:07:08.597Z,14.00
2022-10-08T02:09:39.024Z,13.85
2022-10-08T02:12:08.464Z,13.10
2022-10-08T02:14:41.345Z,13.77
2022-10-08T02:17:21.852Z,13.35
2022-10-08T02:19:54.970Z,12.85
2022-10-08T02:22:27.658Z,12.32
2022-10-08T02:25:01.338Z,13.43
2022-10-08T02:27:37.588Z,12.18
2022-10-08T02:30:11.022Z,12.73
2022-10-08T02:32:46.812Z,13.55
2022-10-08T02:35:18.399Z,13.20
2022-10-08T02:37:54.422Z,13.13
2022-10-08T02:40:23.535Z,14.20
2022-10-08T02:42:57.159Z,12.75
2022-10-08T02:45:30.313Z,11.82
2022-10-08T02:48:03.719Z,13.18
2022-10-08T02:50:33.388Z,12.70
2022-10-08T02:53:02.905Z,12.65
2022-10-08T02:55:40.188Z,12.88
2022-10-08T02:58:11.398Z,12.90
2022-10-08T03:00:47.992Z,12.52
2022-10-08T03:03:17.895Z,13.18
2022-10-08T03:05:47.343Z,13.18
2022-10-08T03:08:16.071Z,13.27
2022-10-08T03:10:45.645Z,14.25
2022-10-08T03:13:15.112Z,12.75
2022-10-08T03:15:44.743Z,13.02
2022-10-08T03:18:13.535Z,14.85
2022-10-08T03:20:45.530Z,13.88
2022-10-08T03:23:16.416Z,13.85
2022-10-08T03:25:44.579Z,14.68
2022-10-08T03:28:13.068Z,14.57
2022-10-08T03:30:41.465Z,14.57
2022-10-08T03:33:11.127Z,14.85
2022-10-08T03:35:44.771Z,14.32
2022-10-08T03:38:15.403Z,14.52
2022-10-08T03:40:43.596Z,14.82
2022-10-08T03:43:11.709Z,15.07
2022-10-08T03:45:39.844Z,15.48
2022-10-08T03:48:08.045Z,15.05
2022-10-08T03:50:37.605Z,15.40
2022-10-08T03:53:05.715Z,14.65
2022-10-08T03:55:36.939Z,14.75
2022-10-08T03:58:05.164Z,14.52
2022-10-08T04:00:33.294Z,16.25
2022-10-08T04:03:01.477Z,14.10
2022-10-08T04:05:29.688Z,15.98
2022-10-08T04:07:59.248Z,14.65
2022-10-08T04:10:27.437Z,15.45
2022-10-08T04:12:56.016Z,14.95
2022-10-08T04:15:24.124Z,15.70
2022-10-08T04:17:52.300Z,14.50
2022-10-08T04:20:20.465Z,14.30
2022-10-08T04:22:49.016Z,15.55
2022-10-08T04:25:19.000Z,14.25
2022-10-08T04:27:49.285Z,15.55
2022-10-08T04:30:18.314Z,15.45
2022-10-08T04:32:46.641Z,14.68
2022-10-08T04:35:15.166Z,14.40
2022-10-08T04:37:43.328Z,15.00
2022-10-08T04:40:11.909Z,15.38
2022-10-08T04:42:41.514Z,15.55
2022-10-08T04:45:10.206Z,14.80
2022-10-08T04:47:38.342Z,14.38
2022-10-08T04:50:07.332Z,14.75
2022-10-08T04:52:35.629Z,14.55
2022-10-08T04:55:03.846Z,15.27
2022-10-08T04:57:32.930Z,14.77
2022-10-08T05:00:19.150Z,15.27
2022-10-08T05:02:47.845Z,15.02
2022-10-08T05:05:16.496Z,15.20
2022-10-08T05:07:44.775Z,15.25
2022-10-08T05:10:12.998Z,14.27
2022-10-08T05:12:41.175Z,14.63
2022-10-08T05:15:12.020Z,14.52
2022-10-08T05:17:40.230Z,14.02
2022-10-08T05:20:09.010Z,15.65
2022-10-08T05:22:37.131Z,14.68
2022-10-08T05:25:06.296Z,14.02
2022-10-08T05:27:34.532Z,13.85
2022-10-08T05:30:03.308Z,15.05
2022-10-08T05:32:33.052Z,14.93
2022-10-08T05:35:01.240Z,14.35
2022-10-08T05:37:29.461Z,15.02
2022-10-08T05:39:57.601Z,14.57
2022-10-08T05:42:25.746Z,14.32
2022-10-08T05:44:53.970Z,14.23
2022-10-08T05:47:22.257Z,14.90
2022-10-08T05:49:51.852Z,14.25
2022-10-08T05:52:20.062Z,14.02
2022-10-08T05:54:48.254Z,14.45
2022-10-08T05:57:16.494Z,14.20
2022-10-08T05:59:44.653Z,15.25
2022-10-08T06:02:12.834Z,14.77
2022-10-08T06:04:41.010Z,14.95
2022-10-08T06:07:10.603Z,14.80
2022-10-08T06:09:38.737Z,15.27
2022-10-08T06:12:08.651Z,14.05
2022-10-08T06:14:36.893Z,14.00
2022-10-08T06:17:07.482Z,14.95
2022-10-08T06:19:37.172Z,13.45
2022-10-08T06:22:05.894Z,14.00
2022-10-08T06:24:35.475Z,13.27
2022-10-08T06:27:03.626Z,14.18
2022-10-08T06:29:31.822Z,13.68
2022-10-08T06:31:59.921Z,13.18
2022-10-08T06:34:28.089Z,13.55
2022-10-08T06:36:56.326Z,12.75
2022-10-08T06:39:24.562Z,13.73
2022-10-08T06:41:54.118Z,14.20
2022-10-08T06:44:22.303Z,12.98
2022-10-08T06:46:50.595Z,14.15
2022-10-08T06:49:19.610Z,14.30
2022-10-08T06:51:47.880Z,13.93
2022-10-08T06:54:16.373Z,13.57
2022-10-08T06:56:44.571Z,14.38
2022-10-08T06:59:14.154Z,14.35
2022-10-08T07:01:42.497Z,15.07
2022-10-08T07:04:12.828Z,14.82
2022-10-08T07:06:40.988Z,13.15
2022-10-08T07:09:10.393Z,13.25
2022-10-08T07:11:39.802Z,13.40
2022-10-08T07:14:07.964Z,14.02
2022-10-08T07:16:37.606Z,13.52
2022-10-08T07:19:05.927Z,13.55
2022-10-08T07:21:34.139Z,13.60
2022-10-08T07:24:02.839Z,12.43
2022-10-08T07:26:34.310Z,13.88
2022-10-08T07:29:05.848Z,14.07
2022-10-08T07:31:37.905Z,14.70
2022-10-08T07:34:08.228Z,13.60
2022-10-08T07:36:36.674Z,14.18
2022-10-08T07:39:06.909Z,13.70
2022-10-08T07:41:35.576Z,12.43
2022-10-08T07:44:04.912Z,12.77
2022-10-08T07:46:34.503Z,13.90
2022-10-08T07:49:04.794Z,13.02
2022-10-08T07:51:34.725Z,12.45
2022-10-08T07:54:04.238Z,12.57
2022-10-08T07:56:34.684Z,14.43
2022-10-08T07:59:03.561Z,12.98
2022-10-08T08:01:33.249Z,12.88
2022-10-08T08:04:05.204Z,11.85
2022-10-08T08:06:35.419Z,13.20
2022-10-08T08:09:03.825Z,12.27
2022-10-08T08:11:32.340Z,12.07
2022-10-08T08:14:00.553Z,12.95
2022-10-08T08:16:30.288Z,12.05
2022-10-08T08:19:00.148Z,11.20
2022-10-08T08:21:31.650Z,11.65
2022-10-08T08:24:05.991Z,10.88
2022-10-08T08:26:36.078Z,12.55
2022-10-08T08:29:06.311Z,11.43
2022-10-08T08:31:36.852Z,11.15
2022-10-08T08:34:08.590Z,12.18
2022-10-08T08:36:39.963Z,10.88
2022-10-08T08:39:10.061Z,11.65
2022-10-08T08:41:51.327Z,11.98
2022-10-08T08:44:22.699Z,9.85
2022-10-08T08:46:55.882Z,11.63
2022-10-08T08:49:29.295Z,10.85
2022-10-08T08:52:01.113Z,11.20
2022-10-08T08:54:29.602Z,11.18
2022-10-08T08:57:07.162Z,10.73
2022-10-08T08:59:40.824Z,10.55
2022-10-08T09:02:20.938Z,10.88
2022-10-08T09:04:52.965Z,10.60
2022-10-08T09:07:26.649Z,10.98
2022-10-08T09:10:00.747Z,10.20
2022-10-08T09:12:34.623Z,9.73
2022-10-08T09:15:04.145Z,10.05
2022-10-08T09:17:35.262Z,9.23
2022-10-08T09:20:03.999Z,10.30
2022-10-08T09:22:37.837Z,9.82
2022-10-08T09:25:08.498Z,9.57
2022-10-08T09:27:47.836Z,9.88
2022-10-08T09:30:31.771Z,9.90
2022-10-08T09:33:03.320Z,9.07
2022-10-08T09:35:33.579Z,9.60
2022-10-08T09:38:05.928Z,10.43
2022-10-08T09:40:40.357Z,10.15
2022-10-08T09:43:18.351Z,9.18
2022-10-08T09:45:47.703Z,9.77
2022-10-08T09:48:23.023Z,9.73
2022-10-08T09:50:58.538Z,9.05
2022-10-08T09:53:33.622Z,8.88
2022-10-08T09:56:03.444Z,9.15
2022-10-08T09:58:34.236Z,9.80
2022-10-08T10:01:06.346Z,10.20
2022-10-08T10:03:36.955Z,9.43
2022-10-08T10:06:05.609Z,9.35
2022-10-08T10:08:49.502Z,9.55
2022-10-08T10:11:28.009Z,9.18
2022-10-08T10:13:57.275Z,8.73
2022-10-08T10:16:30.147Z,8.23
2022-10-08T10:19:00.996Z,12.45
2022-10-08T10:21:36.920Z,10.90
2022-10-08T10:24:29.129Z,10.93
2022-10-08T10:27:03.237Z,9.40
2022-10-08T10:29:48.738Z,9.50
2022-10-08T10:32:23.415Z,11.00
2022-10-08T10:35:00.271Z,12.20
2022-10-08T10:37:35.624Z,10.00
2022-10-08T10:40:20.258Z,11.93
2022-10-08T10:42:56.058Z,10.18
2022-10-08T10:45:27.434Z,10.00
2022-10-08T10:47:56.157Z,10.30
2022-10-08T10:50:30.679Z,9.75
2022-10-08T10:53:09.785Z,9.20
2022-10-08T10:55:45.867Z,9.20
2022-10-08T10:58:28.390Z,8.88
2022-10-08T11:01:06.008Z,9.05
2022-10-08T11:03:44.682Z,9.80
2022-10-08T11:06:37.953Z,10.07
2022-10-08T11:09:13.608Z,10.25
2022-10-08T11:11:46.390Z,9.60
2022-10-08T11:14:26.905Z,11.13
2022-10-08T11:17:03.971Z,10.07
2022-10-08T11:19:45.265Z,9.15
2022-10-08T11:22:23.179Z,9.32
2022-10-08T11:25:17.783Z,9.50
2022-10-08T11:28:02.237Z,10.25
2022-10-08T11:30:42.763Z,9.95
2022-10-08T11:33:13.972Z,10.60
2022-10-08T11:35:51.105Z,9.45
2022-10-08T11:38:26.180Z,9.20
2022-10-08T11:40:57.445Z,9.23
2022-10-08T11:43:32.055Z,9.85
2022-10-08T11:46:30.047Z,9.95
2022-10-08T11:49:00.707Z,10.05
2022-10-08T11:51:32.626Z,9.30
2022-10-08T11:54:09.600Z,10.32
2022-10-08T11:56:40.634Z,9.85
2022-10-08T11:59:26.939Z,10.27
2022-10-08T12:01:58.358Z,10.48
2022-10-08T12:04:31.806Z,9.77
2022-10-08T12:07:18.392Z,10.75
2022-10-08T12:10:22.185Z,11.00
2022-10-08T12:13:29.252Z,10.18
2022-10-08T12:16:07.959Z,11.38
2022-10-08T12:18:45.890Z,9.88
2022-10-08T12:21:51.049Z,10.93
2022-10-08T12:24:55.658Z,11.02
2022-10-08T12:27:40.059Z,10.98
2022-10-08T12:30:13.919Z,10.23
2022-10-08T12:32:58.856Z,10.38
2022-10-08T12:35:30.397Z,10.75
2022-10-08T12:38:18.761Z,10.63
2022-10-08T12:40:53.083Z,9.88
2022-10-08T12:43:27.666Z,10.75
2022-10-08T12:46:02.420Z,10.27
2022-10-08T12:48:40.593Z,10.88
2022-10-08T12:51:20.599Z,9.30
2022-10-08T12:53:49.562Z,9.93
2022-10-08T12:56:24.509Z,9.68
2022-10-08T12:58:53.558Z,9.77
2022-10-08T13:01:22.527Z,11.07
2022-10-08T13:04:08.635Z,8.90
2022-10-08T13:06:36.885Z,9.35
2022-10-08T13:09:19.210Z,8.80
2022-10-08T13:11:52.122Z,9.00
2022-10-08T13:14:28.112Z,9.15
2022-10-08T13:16:56.706Z,9.13
2022-10-08T13:19:32.558Z,9.43
2022-10-08T13:22:01.939Z,8.90
2022-10-08T13:24:33.028Z,9.18
2022-10-08T13:27:01.264Z,9.27
2022-10-08T13:29:32.930Z,9.05
2022-10-08T13:32:03.729Z,8.65
2022-10-08T13:34:36.107Z,9.13
2022-10-08T13:37:07.964Z,9.55
2022-10-08T13:39:38.633Z,9.30
2022-10-08T13:42:11.348Z,9.05
2022-10-08T13:44:41.498Z,10.07
2022-10-08T13:47:13.449Z,10.35
2022-10-08T13:49:43.154Z,9.80
2022-10-08T13:52:14.426Z,9.68
2022-10-08T13:54:43.170Z,9.88
2022-10-08T13:57:11.382Z,9.65
2022-10-08T13:59:39.613Z,9.88
2022-10-08T14:02:08.431Z,10.70
2022-10-08T14:04:36.737Z,10.65
2022-10-08T14:07:09.325Z,11.18
2022-10-08T14:09:37.623Z,11.15
2022-10-08T14:12:06.149Z,12.18
2022-10-08T14:14:34.279Z,10.52
2022-10-08T14:17:03.543Z,11.75
2022-10-08T14:19:31.709Z,15.43
2022-10-08T14:22:00.558Z,12.75
2022-10-08T14:24:30.091Z,14.02
2022-10-08T14:26:58.241Z,13.82
2022-10-08T14:29:26.396Z,13.95
2022-10-08T14:31:54.627Z,13.20
2022-10-08T14:34:22.837Z,12.35
2022-10-08T14:36:55.606Z,12.32
2022-10-08T14:39:23.810Z,11.68
2022-10-08T14:41:53.638Z,13.07
2022-10-08T14:44:22.692Z,11.63
2022-10-08T14:46:52.936Z,11.38
2022-10-08T14:49:21.390Z,11.80
2022-10-08T14:51:49.629Z,11.40
2022-10-08T14:54:18.069Z,10.95
2022-10-08T14:56:47.911Z,11.82
2022-10-08T14:59:18.458Z,10.88
2022-10-08T15:01:46.943Z,12.10
2022-10-08T15:04:16.230Z,10.82
2022-10-08T15:06:44.574Z,10.93
2022-10-08T15:09:13.403Z,10.60
2022-10-08T15:11:41.570Z,10.35
2022-10-08T15:14:10.316Z,10.82
2022-10-08T15:16:39.988Z,10.30
2022-10-08T15:19:08.848Z,11.23
2022-10-08T15:21:37.447Z,11.13
2022-10-08T15:24:05.851Z,10.02
2022-10-08T15:26:34.071Z,10.27
2022-10-08T15:29:02.792Z,11.50
2022-10-08T15:31:30.975Z,10.57
2022-10-08T15:34:01.782Z,11.10
2022-10-08T15:36:31.877Z,10.65
2022-10-08T15:39:01.588Z,10.77
2022-10-08T15:41:31.176Z,12.88
2022-10-08T15:44:08.638Z,11.95
2022-10-08T15:46:37.252Z,17.83
2022-10-08T15:49:07.247Z,15.73
2022-10-08T15:51:35.513Z,13.93
2022-10-08T15:54:04.528Z,13.52
2022-10-08T15:56:33.171Z,16.13
2022-10-08T15:59:02.385Z,21.52
2022-10-08T16:01:31.194Z,17.67
2022-10-08T16:04:00.341Z,16.10
2022-10-08T16:06:34.607Z,16.00
2022-10-08T16:09:03.467Z,16.20
2022-10-08T16:11:34.059Z,16.73
2022-10-08T16:14:08.457Z,16.65
2022-10-08T16:16:37.273Z,18.25
2022-10-08T16:19:07.478Z,17.85
2022-10-08T16:21:38.455Z,18.42
2022-10-08T16:24:07.477Z,17.10
2022-10-08T16:26:36.101Z,18.70
2022-10-08T16:29:07.047Z,20.42
2022-10-08T16:31:37.136Z,20.38
2022-10-08T16:34:07.831Z,22.52
2022-10-08T16:36:37.598Z,23.58
2022-10-08T16:39:07.335Z,22.88
2022-10-08T16:41:36.902Z,22.88
2022-10-08T16:44:12.406Z,23.10
2022-10-08T16:46:43.086Z,24.73
2022-10-08T16:49:19.586Z,24.45
2022-10-08T16:51:49.668Z,25.00
2022-10-08T16:54:19.271Z,23.70
2022-10-08T16:56:48.069Z,24.17
2022-10-08T16:59:19.128Z,24.52
2022-10-08T17:01:49.194Z,24.40
2022-10-08T17:04:18.899Z,24.95
2022-10-08T17:06:47.146Z,25.38
2022-10-08T17:09:16.847Z,24.88
2022-10-08T17:11:45.506Z,26.38
2022-10-08T17:14:13.830Z,26.48
2022-10-08T17:16:43.340Z,26.58
2022-10-08T17:19:12.679Z,27.25
2022-10-08T17:21:41.137Z,26.73
2022-10-08T17:24:11.025Z,29.60
2022-10-08T17:26:41.933Z,30.30
2022-10-08T17:29:12.457Z,30.48
2022-10-08T17:31:41.127Z,30.85
2022-10-08T17:34:10.103Z,32.35
2022-10-08T17:36:40.921Z,31.98
2022-10-08T17:39:12.693Z,34.20
2022-10-08T17:41:43.796Z,31.58
2022-10-08T17:44:12.370Z,31.90
2022-10-08T17:46:42.929Z,34.28
2022-10-08T17:49:11.561Z,32.65
2022-10-08T17:51:40.120Z,34.30
2022-10-08T17:54:09.606Z,34.45
2022-10-08T17:56:37.936Z,36.15
2022-10-08T17:59:08.011Z,36.13
2022-10-08T18:01:42.640Z,37.15
2022-10-08T18:04:15.516Z,38.05
2022-10-08T18:06:46.160Z,36.78
2022-10-08T18:09:16.737Z,36.17
2022-10-08T18:11:47.086Z,35.35
2022-10-08T18:14:17.419Z,37.22
2022-10-08T18:16:48.189Z,35.88
2022-10-08T18:19:17.819Z,37.15
2022-10-08T18:21:46.333Z,36.13
2022-10-08T18:24:15.008Z,37.85
2022-10-08T18:26:43.383Z,34.25
2022-10-08T18:29:13.598Z,32.17
2022-10-08T18:31:45.245Z,33.05
2022-10-08T18:34:15.417Z,34.28
2022-10-08T18:36:44.092Z,32.40
2022-10-08T18:39:14.379Z,30.70
2022-10-08T18:41:44.718Z,30.60
2022-10-08T18:44:15.605Z,29.30
2022-10-08T18:46:45.611Z,30.83
2022-10-08T18:49:15.538Z,29.13
2022-10-08T18:51:44.145Z,28.98
2022-10-08T18:54:13.475Z,30.55
2022-10-08T18:56:42.079Z,28.13
2022-10-08T18:59:14.866Z,28.38
2022-10-08T19:01:46.586Z,27.42
2022-10-08T19:04:17.767Z,27.25
2022-10-08T19:06:47.449Z,26.08
2022-10-08T19:09:16.228Z,29.15
2022-10-08T19:11:47.113Z,27.65
2022-10-08T19:14:16.987Z,26.40
2022-10-08T19:16:47.468Z,27.40
2022-10-08T19:19:17.263Z,24.77
2022-10-08T19:21:48.236Z,26.52
2022-10-08T19:24:18.295Z,24.67
2022-10-08T19:26:47.978Z,27.40
2022-10-08T19:29:18.005Z,26.35
2022-10-08T19:31:48.692Z,25.05
2022-10-08T19:34:18.802Z,26.17
2022-10-08T19:36:47.434Z,24.00
2022-10-08T19:39:17.894Z,25.65
2022-10-08T19:41:46.562Z,23.98
2022-10-08T19:44:14.981Z,25.55
2022-10-08T19:46:43.449Z,26.05
2022-10-08T19:49:13.448Z,26.00
2022-10-08T19:51:42.119Z,24.60
2022-10-08T19:54:11.786Z,24.08
2022-10-08T19:56:40.331Z,24.00
2022-10-08T19:59:08.723Z,24.48
2022-10-08T20:01:39.345Z,24.42
2022-10-08T20:04:09.142Z,23.70
2022-10-08T20:06:40.892Z,22.67
2022-10-08T20:09:11.900Z,22.83
2022-10-08T20:11:41.196Z,23.60
2022-10-08T20:14:10.216Z,22.75
2022-10-08T20:16:41.346Z,23.25
2022-10-08T20:19:15.385Z,22.88
2022-10-08T20:21:45.722Z,23.45
2022-10-08T20:24:13.990Z,24.05
2022-10-08T20:26:43.616Z,23.65
2022-10-08T20:29:15.015Z,21.80
2022-10-08T20:31:46.209Z,22.27
2022-10-08T20:34:17.713Z,21.85
2022-10-08T20:36:47.980Z,20.80
2022-10-08T20:39:18.719Z,21.00
2022-10-08T20:41:47.252Z,23.05
2022-10-08T20:44:16.033Z,21.45
2022-10-08T20:46:44.514Z,21.80
2022-10-08T20:49:14.201Z,22.13
2022-10-08T20:51:44.029Z,21.13
2022-10-08T20:54:15.470Z,21.23
2022-10-08T20:56:44.099Z,21.77
2022-10-08T20:59:16.506Z,20.92
2022-10-08T21:01:44.771Z,22.65
2022-10-08T21:04:13.084Z,22.15
2022-10-08T21:06:43.047Z,22.33
2022-10-08T21:09:11.380Z,21.70
2022-10-08T21:11:41.296Z,22.45
2022-10-08T21:14:10.648Z,22.27
2022-10-08T21:16:40.877Z,21.38
2022-10-08T21:19:12.852Z,20.65
2022-10-08T21:21:41.696Z,20.05
2022-10-08T21:24:10.073Z,19.83
2022-10-08T21:26:41.435Z,19.45
2022-10-08T21:29:12.775Z,20.40
2022-10-08T21:31:42.263Z,19.00
2022-10-08T21:34:11.906Z,18.85
2022-10-08T21:36:41.630Z,20.42
2022-10-08T21:39:11.774Z,19.50
2022-10-08T21:41:41.342Z,17.92
2022-10-08T21:44:10.150Z,19.77
2022-10-08T21:46:40.354Z,18.00
2022-10-08T21:49:11.704Z,16.98
2022-10-08T21:51:39.859Z,18.23
2022-10-08T21:54:08.659Z,18.17
2022-10-08T21:56:52.859Z,18.08
2022-10-08T21:59:21.163Z,19.23
2022-10-08T22:01:51.015Z,18.02
2022-10-08T22:04:21.414Z,18.48
2022-10-08T22:06:50.816Z,16.85
2022-10-08T22:09:21.060Z,17.10
2022-10-08T22:11:51.137Z,16.67
2022-10-08T22:14:22.893Z,15.73
2022-10-08T22:16:51.604Z,14.82
2022-10-08T22:19:20.318Z,14.63
2022-10-08T22:21:52.677Z,12.63
2022-10-08T22:24:20.908Z,11.57
2022-10-08T22:26:50.409Z,11.13
2022-10-08T22:29:18.668Z,10.90
2022-10-08T22:31:47.202Z,11.30
2022-10-08T22:34:15.639Z,9.65
2022-10-08T22:36:44.924Z,10.57
2022-10-08T22:39:13.215Z,11.05
2022-10-08T22:41:45.807Z,10.95
2022-10-08T22:44:15.590Z,10.68
2022-10-08T22:46:43.754Z,9.45
2022-10-08T22:49:13.436Z,9.98
2022-10-08T22:51:43.864Z,10.38
2022-10-08T22:54:12.124Z,9.55
2022-10-08T22:56:40.414Z,10.60
2022-10-08T22:59:08.561Z,10.27
2022-10-08T23:01:38.199Z,9.15
2022-10-08T23:04:06.592Z,9.30
2022-10-08T23:06:35.552Z,10.07
2022-10-08T23:09:06.066Z,9.05
2022-10-08T23:11:35.180Z,9.55
2022-10-08T23:14:03.943Z,10.10
2022-10-08T23:16:33.933Z,9.23
2022-10-08T23:19:06.129Z,8.95
2022-10-08T23:21:34.958Z,9.73
2022-10-08T23:24:03.391Z,8.70
2022-10-08T23:26:31.909Z,9.25
2022-10-08T23:29:01.425Z,9.05
2022-10-08T23:31:31.593Z,9.18
2022-10-08T23:34:01.075Z,9.52
2022-10-08T23:36:32.368Z,10.02
2022-10-08T23:39:00.621Z,10.32
2022-10-08T23:41:29.193Z,10.40
2022-10-08T23:43:58.616Z,12.50
2022-10-08T23:46:28.468Z,12.35
2022-10-08T23:48:57.456Z,14.77
2022-10-08T23:51:28.127Z,13.73
2022-10-08T23:54:04.713Z,13.77
2022-10-08T23:56:32.999Z,13.65
2022-10-08T23:59:01.251Z,13.95
